createdAt,value
2019-02-22T00:02:18.091Z,99829.44
2019-02-22T00:04:47.036Z,99826.13
2019-02-22T00:07:15.699Z,99836.27
2019-02-22T00:09:49.461Z,99830.80
2019-02-22T00:12:14.766Z,99832.95
2019-02-22T00:14:43.724Z,99832.96
2019-02-22T00:17:12.765Z,99836.27
2019-02-22T00:19:41.423Z,99838.98
2019-02-22T00:22:10.634Z,99843.88
2019-02-22T00:24:39.303Z,99846.91
2019-02-22T00:27:08.318Z,99845.53
2019-02-22T00:29:37.352Z,99847.73
2019-02-22T00:32:06.092Z,99852.89
2019-02-22T00:34:35.132Z,99853.73
2019-02-22T00:37:03.909Z,99851.00
2019-02-22T00:39:32.967Z,99856.16
2019-02-22T00:42:02.260Z,99862.44
2019-02-22T00:44:31.220Z,99863.55
2019-02-22T00:47:00.421Z,99870.64
2019-02-22T00:49:29.163Z,99876.88
2019-02-22T00:51:58.098Z,99876.84
2019-02-22T00:54:27.040Z,99881.84
2019-02-22T00:56:55.941Z,99887.78
2019-02-22T00:59:24.609Z,99894.07
2019-02-22T01:01:53.275Z,99905.79
2019-02-22T01:04:22.456Z,99911.04
2019-02-22T01:06:51.123Z,99910.77
2019-02-22T01:09:19.797Z,99909.99
2019-02-22T01:11:48.707Z,99918.71
2019-02-22T01:14:17.940Z,99933.17
2019-02-22T01:16:46.616Z,99929.11
2019-02-22T01:19:15.281Z,99933.20
2019-02-22T01:21:43.971Z,99940.78
2019-02-22T01:24:12.696Z,99940.58
2019-02-22T01:26:41.695Z,99938.30
2019-02-22T01:29:10.720Z,99943.81
2019-02-22T01:31:39.667Z,99940.48
2019-02-22T01:34:08.324Z,99944.04
2019-02-22T01:36:37.001Z,99950.91
2019-02-22T01:39:06.587Z,99954.31
2019-02-22T01:41:35.277Z,99953.00
2019-02-22T01:44:04.226Z,99951.34
2019-02-22T01:46:32.927Z,99950.58
2019-02-22T01:49:01.598Z,99951.10
2019-02-22T01:51:30.601Z,99949.48
2019-02-22T01:53:59.789Z,99951.08
2019-02-22T01:56:28.777Z,99945.89
2019-02-22T01:58:57.471Z,99934.64
2019-02-22T02:01:26.667Z,99935.69
2019-02-22T02:03:55.639Z,99936.23
2019-02-22T02:06:24.958Z,99935.47
2019-02-22T02:08:54.026Z,99948.05
2019-02-22T02:11:23.012Z,99958.96
2019-02-22T02:13:51.736Z,99959.03
2019-02-22T02:16:20.413Z,99958.41
2019-02-22T02:18:49.131Z,99964.29
2019-02-22T02:21:18.106Z,99956.37
2019-02-22T02:23:46.865Z,99955.69
2019-02-22T02:26:15.576Z,99957.94
2019-02-22T02:28:44.255Z,99961.42
2019-02-22T02:31:13.035Z,99963.66
2019-02-22T02:33:41.691Z,99969.77
2019-02-22T02:36:10.362Z,99969.69
2019-02-22T02:38:39.310Z,99983.32
2019-02-22T02:41:11.435Z,99985.76
2019-02-22T02:43:39.789Z,99997.17
2019-02-22T02:46:08.408Z,100000.48
2019-02-22T02:48:37.440Z,99997.05
2019-02-22T02:51:06.429Z,100002.78
2019-02-22T02:53:35.188Z,100000.05
2019-02-22T02:56:04.203Z,100003.59
2019-02-22T02:58:33.191Z,99997.53
2019-02-22T03:01:01.966Z,99990.23
2019-02-22T03:03:31.277Z,100003.04
2019-02-22T03:06:17.789Z,100001.42
2019-02-22T03:08:47.207Z,100013.09
2019-02-22T03:11:20.542Z,100016.11
2019-02-22T03:13:46.895Z,100013.06
2019-02-22T03:16:15.739Z,100024.77
2019-02-22T03:18:44.712Z,100020.70
2019-02-22T03:21:13.635Z,100020.95
2019-02-22T03:23:42.312Z,100025.58
2019-02-22T03:26:11.009Z,100020.34
2019-02-22T03:28:40.301Z,100028.55
2019-02-22T03:31:11.165Z,100033.42
2019-02-22T03:33:40.519Z,100030.17
2019-02-22T03:36:09.174Z,100031.52
2019-02-22T03:38:38.175Z,100036.13
2019-02-22T03:41:07.168Z,100046.27
2019-02-22T03:43:35.880Z,100053.06
2019-02-22T03:46:04.945Z,100046.23
2019-02-22T03:48:33.883Z,100044.30
2019-02-22T03:51:03.279Z,100048.97
2019-02-22T03:53:35.784Z,100061.52
2019-02-22T03:56:04.530Z,100060.50
2019-02-22T03:58:33.372Z,100066.48
2019-02-22T04:01:02.804Z,100059.64
2019-02-22T04:03:31.612Z,100060.19
2019-02-22T04:06:00.689Z,100062.33
2019-02-22T04:08:29.779Z,100064.20
2019-02-22T04:10:59.073Z,100067.77
2019-02-22T04:13:28.004Z,100070.31
2019-02-22T04:15:56.665Z,100080.09
2019-02-22T04:18:25.940Z,100080.64
2019-02-22T04:20:54.882Z,100084.45
2019-02-22T04:23:24.442Z,100079.78
2019-02-22T04:25:54.155Z,100074.06
2019-02-22T04:28:22.857Z,100080.69
2019-02-22T04:30:51.526Z,100078.55
2019-02-22T04:33:20.526Z,100079.06
2019-02-22T04:35:49.187Z,100085.79
2019-02-22T04:38:17.872Z,100089.62
2019-02-22T04:40:46.912Z,100086.70
2019-02-22T04:43:15.927Z,100088.83
2019-02-22T04:45:44.669Z,100087.81
2019-02-22T04:48:13.657Z,100089.42
2019-02-22T04:50:42.409Z,100092.96
2019-02-22T04:53:11.727Z,100092.96
2019-02-22T04:55:40.733Z,100096.02
2019-02-22T04:58:11.591Z,100103.38
2019-02-22T05:00:40.567Z,100099.34
2019-02-22T05:03:09.251Z,100104.51
2019-02-22T05:05:38.242Z,100105.63
2019-02-22T05:08:07.204Z,100102.83
2019-02-22T05:10:36.231Z,100113.47
2019-02-22T05:13:05.440Z,100110.27
2019-02-22T05:15:34.155Z,100117.86
2019-02-22T05:18:03.216Z,100121.14
2019-02-22T05:20:31.987Z,100126.61
2019-02-22T05:23:04.387Z,100119.74
2019-02-22T05:25:31.514Z,100126.78
2019-02-22T05:28:00.191Z,100119.66
2019-02-22T05:30:29.502Z,100126.17
2019-02-22T05:32:58.561Z,100131.42
2019-02-22T05:35:27.259Z,100136.38
2019-02-22T05:37:56.272Z,100139.92
2019-02-22T05:40:27.138Z,100149.98
2019-02-22T05:42:55.809Z,100155.14
2019-02-22T05:45:24.529Z,100139.53
2019-02-22T05:47:53.163Z,100147.17
2019-02-22T05:50:21.857Z,100153.77
2019-02-22T05:52:50.847Z,100152.92
2019-02-22T05:55:19.773Z,100155.22
2019-02-22T05:57:48.713Z,100148.41
2019-02-22T06:00:18.343Z,100161.53
2019-02-22T06:02:47.272Z,100160.13
2019-02-22T06:05:16.112Z,100164.22
2019-02-22T06:07:44.807Z,100168.02
2019-02-22T06:10:13.491Z,100159.47
2019-02-22T06:12:42.169Z,100162.18
2019-02-22T06:15:11.003Z,100171.87
2019-02-22T06:17:40.510Z,100179.28
2019-02-22T06:20:10.877Z,100180.05
2019-02-22T06:22:40.187Z,100185.38
2019-02-22T06:25:09.495Z,100189.05
2019-02-22T06:27:39.396Z,100190.73
2019-02-22T06:30:08.583Z,100197.52
2019-02-22T06:32:37.595Z,100195.97
2019-02-22T06:35:08.830Z,100195.75
2019-02-22T06:37:36.831Z,100212.12
2019-02-22T06:40:05.909Z,100209.95
2019-02-22T06:42:45.190Z,100215.03
2019-02-22T06:45:06.195Z,100219.59
2019-02-22T06:47:34.950Z,100218.47
2019-02-22T06:50:03.725Z,100230.02
2019-02-22T06:52:32.708Z,100231.41
2019-02-22T06:55:01.399Z,100237.37
2019-02-22T06:57:30.076Z,100242.02
2019-02-22T06:59:58.771Z,100234.94
2019-02-22T07:02:27.905Z,100238.83
2019-02-22T07:04:56.600Z,100251.23
2019-02-22T07:07:25.984Z,100260.69
2019-02-22T07:09:54.939Z,100266.28
2019-02-22T07:12:36.287Z,100275.55
2019-02-22T07:15:05.909Z,100281.54
2019-02-22T07:17:34.654Z,100287.23
2019-02-22T07:20:04.022Z,100291.06
2019-02-22T07:22:33.021Z,100289.94
2019-02-22T07:25:01.731Z,100290.85
2019-02-22T07:27:30.393Z,100291.38
2019-02-22T07:29:59.070Z,100290.88
2019-02-22T07:32:28.042Z,100299.48
2019-02-22T07:34:56.714Z,100308.00
2019-02-22T07:37:25.389Z,100307.20
2019-02-22T07:39:54.594Z,100314.02
2019-02-22T07:42:25.991Z,100308.95
2019-02-22T07:44:54.974Z,100316.10
2019-02-22T07:47:23.691Z,100325.56
2019-02-22T07:49:52.620Z,100326.89
2019-02-22T07:52:21.321Z,100337.02
2019-02-22T07:54:49.983Z,100333.09
2019-02-22T07:57:18.679Z,100335.83
2019-02-22T07:59:47.371Z,100336.19
2019-02-22T08:02:16.388Z,100347.40
2019-02-22T08:04:45.384Z,100349.14
2019-02-22T08:07:14.382Z,100355.26
2019-02-22T08:09:43.366Z,100357.81
2019-02-22T08:12:12.052Z,100366.03
2019-02-22T08:14:40.992Z,100360.69
2019-02-22T08:17:09.993Z,100366.45
2019-02-22T08:19:38.678Z,100366.45
2019-02-22T08:22:08.016Z,100379.86
2019-02-22T08:24:36.747Z,100390.24
2019-02-22T08:27:05.435Z,100391.05
2019-02-22T08:29:34.110Z,100393.20
2019-02-22T08:32:03.181Z,100396.53
2019-02-22T08:34:31.858Z,100391.70
2019-02-22T08:37:00.555Z,100391.34
2019-02-22T08:39:30.084Z,100392.47
2019-02-22T08:41:59.055Z,100402.53
2019-02-22T08:44:28.156Z,100404.56
2019-02-22T08:46:56.838Z,100413.31
2019-02-22T08:49:25.521Z,100411.28
2019-02-22T08:51:54.527Z,100429.39
2019-02-22T08:54:23.556Z,100440.24
2019-02-22T08:56:52.790Z,100430.30
2019-02-22T08:59:22.365Z,100436.72
2019-02-22T09:01:51.041Z,100442.05
2019-02-22T09:04:20.066Z,100451.23
2019-02-22T09:06:48.764Z,100448.37
2019-02-22T09:09:18.052Z,100454.09
2019-02-22T09:11:46.746Z,100451.40
2019-02-22T09:14:16.050Z,100456.42
2019-02-22T09:16:44.721Z,100462.11
2019-02-22T09:19:13.410Z,100469.20
2019-02-22T09:21:42.414Z,100465.41
2019-02-22T09:24:11.115Z,100463.00
2019-02-22T09:26:39.785Z,100465.52
2019-02-22T09:29:08.708Z,100464.72
2019-02-22T09:31:37.387Z,100473.33
2019-02-22T09:34:06.066Z,100471.55
2019-02-22T09:36:34.755Z,100478.38
2019-02-22T09:39:05.104Z,100474.06
2019-02-22T09:41:33.797Z,100476.21
2019-02-22T09:44:02.476Z,100475.19
2019-02-22T09:46:31.726Z,100477.70
2019-02-22T09:49:00.431Z,100478.48
2019-02-22T09:51:29.086Z,100487.53
2019-02-22T09:53:57.784Z,100489.55
2019-02-22T09:56:26.740Z,100497.67
2019-02-22T09:58:55.776Z,100499.73
2019-02-22T10:01:24.448Z,100500.35
2019-02-22T10:03:53.149Z,100507.39
2019-02-22T10:06:21.838Z,100501.94
2019-02-22T10:08:50.822Z,100366.56
2019-02-22T10:11:20.534Z,100515.59
2019-02-22T10:13:49.285Z,100515.03
2019-02-22T10:16:18.281Z,100525.22
2019-02-22T10:18:47.061Z,100518.70
2019-02-22T10:21:16.093Z,100522.19
2019-02-22T10:23:44.816Z,100524.73
2019-02-22T10:26:13.775Z,100526.38
2019-02-22T10:28:42.753Z,100535.29
2019-02-22T10:31:12.059Z,100537.69
2019-02-22T10:33:40.806Z,100534.78
2019-02-22T10:36:09.855Z,100539.89
2019-02-22T10:38:39.111Z,100547.28
2019-02-22T10:41:09.946Z,100547.23
2019-02-22T10:43:38.971Z,100547.73
2019-02-22T10:46:07.657Z,100546.28
2019-02-22T10:48:36.634Z,100549.39
2019-02-22T10:51:05.332Z,100552.19
2019-02-22T10:53:34.018Z,100565.16
2019-02-22T10:56:03.219Z,100566.41
2019-02-22T10:58:31.917Z,100566.72
2019-02-22T11:01:02.703Z,100564.42
2019-02-22T11:03:33.378Z,100571.08
2019-02-22T11:06:02.378Z,100576.25
2019-02-22T11:08:31.099Z,100584.98
2019-02-22T11:10:59.780Z,100584.61
2019-02-22T11:13:28.559Z,100585.48
2019-02-22T11:15:57.228Z,100593.61
2019-02-22T11:18:25.987Z,100590.61
2019-02-22T11:20:54.675Z,100591.09
2019-02-22T11:23:23.418Z,100583.34
2019-02-22T11:25:52.468Z,100585.64
2019-02-22T11:28:21.190Z,100584.47
2019-02-22T11:30:50.222Z,100586.55
2019-02-22T11:33:18.979Z,100583.70
2019-02-22T11:35:47.720Z,100586.72
2019-02-22T11:38:16.387Z,100585.21
2019-02-22T11:40:45.709Z,100589.05
2019-02-22T11:43:14.392Z,100595.34
2019-02-22T11:45:43.461Z,100594.61
2019-02-22T11:48:12.155Z,100596.41
2019-02-22T11:50:40.855Z,100601.38
2019-02-22T11:53:09.539Z,100607.47
2019-02-22T11:55:38.633Z,100602.67
2019-02-22T11:58:07.382Z,100609.41
2019-02-22T12:00:36.407Z,100605.16
2019-02-22T12:03:21.282Z,100610.77
2019-02-22T12:05:35.777Z,100609.16
2019-02-22T12:08:04.482Z,100610.66
2019-02-22T12:10:33.154Z,100602.16
2019-02-22T12:13:02.108Z,100606.69
2019-02-22T12:15:31.575Z,100615.83
2019-02-22T12:18:00.629Z,100610.27
2019-02-22T12:20:29.657Z,100610.70
2019-02-22T12:22:58.690Z,100618.84
2019-02-22T12:25:27.378Z,100623.66
2019-02-22T12:27:56.406Z,100628.34
2019-02-22T12:30:25.780Z,100634.30
2019-02-22T12:32:54.972Z,100633.36
2019-02-22T12:35:23.730Z,100636.31
2019-02-22T12:37:52.526Z,100637.88
2019-02-22T12:40:21.285Z,100629.19
2019-02-22T12:42:49.963Z,100628.69
2019-02-22T12:45:19.326Z,100623.52
2019-02-22T12:47:47.970Z,100627.27
2019-02-22T12:50:16.647Z,100630.63
2019-02-22T12:52:45.562Z,100643.47
2019-02-22T12:55:14.495Z,100641.73
2019-02-22T12:57:43.972Z,100641.73
2019-02-22T13:00:13.406Z,100649.03
2019-02-22T13:02:42.353Z,100648.13
2019-02-22T13:05:13.343Z,100648.13
2019-02-22T13:07:42.064Z,100651.46
2019-02-22T13:10:11.783Z,100659.39
2019-02-22T13:12:40.499Z,100665.02
2019-02-22T13:15:13.937Z,100660.09
2019-02-22T13:17:41.414Z,100680.25
2019-02-22T13:20:10.537Z,100673.49
2019-02-22T13:22:39.621Z,100686.28
2019-02-22T13:25:08.532Z,100686.09
2019-02-22T13:27:37.606Z,100694.02
2019-02-22T13:30:07.436Z,100695.99
2019-02-22T13:32:36.266Z,100701.72
2019-02-22T13:35:05.359Z,100700.34
2019-02-22T13:37:34.132Z,100692.23
2019-02-22T13:40:03.151Z,100698.16
2019-02-22T13:42:31.847Z,100701.02
2019-02-22T13:45:01.982Z,100707.56
2019-02-22T13:47:31.021Z,100710.58
2019-02-22T13:50:00.617Z,100713.09
2019-02-22T13:52:30.018Z,100719.44
2019-02-22T13:54:58.670Z,100710.63
2019-02-22T13:57:30.358Z,100710.27
2019-02-22T13:59:59.142Z,100724.26
2019-02-22T14:02:30.600Z,100725.09
2019-02-22T14:04:59.278Z,100731.09
2019-02-22T14:07:27.992Z,100731.77
2019-02-22T14:09:56.680Z,100732.83
2019-02-22T14:12:25.357Z,100733.98
2019-02-22T14:14:56.688Z,100726.48
2019-02-22T14:17:25.665Z,100738.27
2019-02-22T14:19:54.589Z,100740.65
2019-02-22T14:22:23.557Z,100742.80
2019-02-22T14:24:52.863Z,100751.20
2019-02-22T14:27:21.539Z,100749.20
2019-02-22T14:29:50.192Z,100748.52
2019-02-22T14:32:18.885Z,100750.49
2019-02-22T14:34:47.640Z,100754.45
2019-02-22T14:37:16.371Z,100759.13
2019-02-22T14:39:45.349Z,100759.84
2019-02-22T14:42:14.058Z,100765.59
2019-02-22T14:44:43.024Z,100752.78
2019-02-22T14:47:11.990Z,100756.99
2019-02-22T14:49:40.644Z,100758.87
2019-02-22T14:52:09.318Z,100766.40
2019-02-22T14:54:38.216Z,100772.09
2019-02-22T14:57:06.873Z,100776.39
2019-02-22T14:59:35.534Z,100771.12
2019-02-22T15:02:04.591Z,100772.31
2019-02-22T15:04:36.165Z,100768.69
2019-02-22T15:07:04.321Z,100763.22
2019-02-22T15:09:32.975Z,100762.09
2019-02-22T15:12:01.638Z,100764.99
2019-02-22T15:14:30.649Z,100770.30
2019-02-22T15:17:27.807Z,100773.16
2019-02-22T15:19:56.459Z,100768.94
2019-02-22T15:22:25.125Z,100771.00
2019-02-22T15:24:54.371Z,100767.05
2019-02-22T15:27:23.382Z,100774.00
2019-02-22T15:29:52.082Z,100775.77
2019-02-22T15:32:20.708Z,100768.67
2019-02-22T15:34:49.376Z,100771.27
2019-02-22T15:37:18.624Z,100778.20
2019-02-22T15:39:48.901Z,100779.05
2019-02-22T15:42:17.757Z,100774.12
2019-02-22T15:44:46.702Z,100780.92
2019-02-22T15:47:15.644Z,100783.86
2019-02-22T15:49:44.313Z,100785.02
2019-02-22T15:52:13.046Z,100785.02
2019-02-22T15:54:41.712Z,100786.25
2019-02-22T15:57:10.363Z,100786.55
2019-02-22T15:59:39.298Z,100784.91
2019-02-22T16:02:07.953Z,100791.08
2019-02-22T16:04:55.655Z,100793.14
2019-02-22T16:07:24.435Z,100807.72
2019-02-22T16:09:53.106Z,100805.59
2019-02-22T16:12:22.030Z,100801.38
2019-02-22T16:14:50.690Z,100807.05
2019-02-22T16:17:19.333Z,100804.23
2019-02-22T16:19:51.280Z,100802.34
2019-02-22T16:22:19.329Z,100804.30
2019-02-22T16:24:48.323Z,100809.05
2019-02-22T16:27:17.264Z,100809.81
2019-02-22T16:29:46.211Z,100813.75
2019-02-22T16:32:15.131Z,100813.83
2019-02-22T16:34:46.615Z,100805.76
2019-02-22T16:37:14.575Z,100819.45
2019-02-22T16:39:43.919Z,100819.26
2019-02-22T16:42:12.570Z,100819.26
2019-02-22T16:44:41.299Z,100810.91
2019-02-22T16:47:10.182Z,100813.48
2019-02-22T16:49:41.098Z,100817.48
2019-02-22T16:52:09.840Z,100814.38
2019-02-22T16:54:40.667Z,100819.36
2019-02-22T16:57:09.582Z,100816.64
2019-02-22T16:59:38.277Z,100821.47
2019-02-22T17:02:07.163Z,100823.74
2019-02-22T17:04:36.720Z,100823.22
2019-02-22T17:07:05.663Z,100822.61
2019-02-22T17:09:34.334Z,100824.50
2019-02-22T17:12:06.543Z,100829.02
2019-02-22T17:14:39.184Z,100831.27
2019-02-22T17:17:10.150Z,100830.35
2019-02-22T17:19:38.834Z,100839.89
2019-02-22T17:22:09.662Z,100852.64
2019-02-22T17:24:38.281Z,100848.65
2019-02-22T17:27:07.286Z,100856.37
2019-02-22T17:29:35.946Z,100847.02
2019-02-22T17:32:04.612Z,100855.25
2019-02-22T17:34:33.293Z,100851.17
2019-02-22T17:37:02.584Z,100860.08
2019-02-22T17:39:31.258Z,100862.03
2019-02-22T17:42:00.250Z,100853.13
2019-02-22T17:44:30.308Z,100859.43
2019-02-22T17:46:58.966Z,100856.39
2019-02-22T17:49:27.893Z,100857.64
2019-02-22T17:51:56.956Z,100859.42
2019-02-22T17:54:25.890Z,100867.69
2019-02-22T17:56:55.116Z,100867.60
2019-02-22T17:59:24.498Z,100864.95
2019-02-22T18:01:53.187Z,100867.95
2019-02-22T18:04:22.087Z,100877.00
2019-02-22T18:06:50.768Z,100877.11
2019-02-22T18:09:19.894Z,100877.11
2019-02-22T18:11:48.827Z,100881.44
2019-02-22T18:14:17.486Z,100880.39
2019-02-22T18:16:46.242Z,100883.38
2019-02-22T18:19:15.236Z,100896.26
2019-02-22T18:21:44.016Z,100901.19
2019-02-22T18:24:12.681Z,100909.17
2019-02-22T18:26:41.408Z,100898.55
2019-02-22T18:29:10.148Z,100896.63
2019-02-22T18:31:39.105Z,100897.73
2019-02-22T18:34:07.858Z,100894.30
2019-02-22T18:36:37.082Z,100897.95
2019-02-22T18:39:07.520Z,100905.55
2019-02-22T18:41:36.454Z,100919.11
2019-02-22T18:44:05.674Z,100920.19
2019-02-22T18:46:34.628Z,100936.28
2019-02-22T18:49:03.284Z,100935.27
2019-02-22T18:51:32.211Z,100935.62
2019-02-22T18:54:00.893Z,100927.11
2019-02-22T18:56:30.055Z,100928.36
2019-02-22T18:58:59.013Z,100922.62
2019-02-22T19:01:27.702Z,100921.45
2019-02-22T19:03:56.372Z,100930.62
2019-02-22T19:06:25.057Z,100932.41
2019-02-22T19:08:54.338Z,100926.98
2019-02-22T19:11:23.023Z,100922.81
2019-02-22T19:13:52.255Z,100934.22
2019-02-22T19:16:20.995Z,100943.66
2019-02-22T19:18:49.660Z,100937.97
2019-02-22T19:21:18.319Z,100930.58
2019-02-22T19:23:47.275Z,100932.96
2019-02-22T19:26:16.283Z,100940.12
2019-02-22T19:28:45.269Z,100932.95
2019-02-22T19:31:14.237Z,100948.25
2019-02-22T19:33:43.461Z,100948.58
2019-02-22T19:36:12.140Z,100955.87
2019-02-22T19:38:40.815Z,100951.66
2019-02-22T19:41:09.750Z,100944.88
2019-02-22T19:43:40.783Z,100947.54
2019-02-22T19:46:10.904Z,100942.17
2019-02-22T19:48:39.584Z,100946.19
2019-02-22T19:51:08.272Z,100943.66
2019-02-22T19:53:37.351Z,100936.97
2019-02-22T19:56:06.051Z,100934.78
2019-02-22T19:58:35.015Z,100942.91
2019-02-22T20:01:03.665Z,100943.39
2019-02-22T20:03:32.347Z,100952.17
2019-02-22T20:06:01.008Z,100951.88
2019-02-22T20:08:29.673Z,100959.23
2019-02-22T20:10:58.361Z,100948.68
2019-02-22T20:13:27.061Z,100946.84
2019-02-22T20:15:56.219Z,100949.27
2019-02-22T20:18:25.155Z,100950.72
2019-02-22T20:20:54.050Z,100951.44
2019-02-22T20:23:23.228Z,100944.23
2019-02-22T20:25:51.936Z,100940.21
2019-02-22T20:28:20.905Z,100936.98
2019-02-22T20:30:49.973Z,100932.96
2019-02-22T20:33:18.647Z,100922.25
2019-02-22T20:35:47.636Z,100919.53
2019-02-22T20:38:16.379Z,100905.66
2019-02-22T20:40:45.599Z,100900.41
2019-02-22T20:43:14.272Z,100911.59
2019-02-22T20:45:42.936Z,100902.05
2019-02-22T20:48:11.984Z,100902.39
2019-02-22T20:50:40.646Z,100920.38
2019-02-22T20:53:09.313Z,100929.50
2019-02-22T20:55:38.020Z,100934.12
2019-02-22T20:58:06.657Z,100945.59
2019-02-22T21:00:35.344Z,100947.91
2019-02-22T21:03:04.458Z,100956.59
2019-02-22T21:05:33.147Z,100965.63
2019-02-22T21:08:01.830Z,100967.89
2019-02-22T21:10:30.998Z,100970.87
2019-02-22T21:13:00.231Z,100981.68
2019-02-22T21:15:28.994Z,100979.12
2019-02-22T21:17:57.648Z,100978.64
2019-02-22T21:20:26.549Z,100983.36
2019-02-22T21:22:55.745Z,100991.30
2019-02-22T21:25:24.439Z,100991.11
2019-02-22T21:27:53.119Z,100985.66
2019-02-22T21:30:25.272Z,100985.38
2019-02-22T21:32:54.253Z,100982.91
2019-02-22T21:35:22.941Z,100984.59
2019-02-22T21:37:51.610Z,100985.97
2019-02-22T21:40:20.294Z,100986.07
2019-02-22T21:42:49.202Z,100964.11
2019-02-22T21:45:17.966Z,100985.19
2019-02-22T21:47:54.656Z,100984.25
2019-02-22T21:50:17.953Z,100988.86
2019-02-22T21:52:47.133Z,100978.09
2019-02-22T21:55:15.842Z,100985.19
2019-02-22T21:57:44.628Z,100991.52
2019-02-22T22:00:17.631Z,100994.42
2019-02-22T22:02:46.610Z,100979.00
2019-02-22T22:05:15.290Z,100992.34
2019-02-22T22:07:43.971Z,101008.16
2019-02-22T22:10:12.645Z,101012.64
2019-02-22T22:12:41.655Z,101010.03
2019-02-22T22:15:10.902Z,101005.22
2019-02-22T22:17:39.922Z,101011.28
2019-02-22T22:20:09.061Z,101012.09
2019-02-22T22:22:37.896Z,101016.06
2019-02-22T22:25:06.946Z,101016.03
2019-02-22T22:27:37.530Z,101014.38
2019-02-22T22:30:06.956Z,101019.55
2019-02-22T22:32:36.192Z,101011.41
2019-02-22T22:35:05.313Z,101001.23
2019-02-22T22:37:34.292Z,101005.63
2019-02-22T22:40:02.977Z,101029.63
2019-02-22T22:42:31.639Z,101020.23
2019-02-22T22:45:01.182Z,101020.66
2019-02-22T22:47:29.922Z,101023.66
2019-02-22T22:50:01.057Z,101017.94
2019-02-22T22:52:30.012Z,101016.48
2019-02-22T22:55:01.123Z,101019.94
2019-02-22T22:57:29.973Z,101023.59
2019-02-22T22:59:59.188Z,101035.25
2019-02-22T23:02:28.352Z,101025.23
2019-02-22T23:04:57.039Z,101029.50
2019-02-22T23:07:25.840Z,100979.22
2019-02-22T23:09:54.872Z,101037.77
2019-02-22T23:12:23.944Z,101040.19
2019-02-22T23:14:52.898Z,101045.61
2019-02-22T23:17:21.807Z,101049.77
2019-02-22T23:19:50.801Z,101053.87
2019-02-22T23:22:19.437Z,101054.06
2019-02-22T23:24:48.130Z,101056.58
2019-02-22T23:27:17.042Z,101051.16
2019-02-22T23:29:45.804Z,101053.03
2019-02-22T23:32:14.712Z,101049.19
2019-02-22T23:34:43.991Z,101051.58
2019-02-22T23:37:12.705Z,101044.89
2019-02-22T23:39:41.438Z,101052.91
2019-02-22T23:42:10.373Z,101047.70
2019-02-22T23:44:39.359Z,101040.70
2019-02-22T23:47:08.365Z,101039.40
2019-02-22T23:49:37.029Z,101048.55
2019-02-22T23:52:05.712Z,101045.84
2019-02-22T23:54:34.383Z,101032.73
2019-02-22T23:57:03.052Z,101045.33
2019-02-22T23:59:32.198Z,101046.27
